Česky Dansk Deutsch English Español Suomi Français Magyar Italiano Nederlands norsk Polski Português svenska Türkçe

 

Het Weer

Oberpfaffenhofen (Duitsland)

16:50, 21 augustus 2016 (GMT)

NWNNE
WE
SWSSE
Home            
Oberpfaffenhofen Fuerstenfeldbruck Landsberg Lechfeld Altenstadt Augsburg Munchen Erding Neuburg / Donau Ingolstadt Memmingen Schwaz Heliport Innsbruck-Flughafen Laupheim Roth Salzburg-Flughafen Hohenfels Friedrichshafen Hohenems-Dornbirn Zell Am See Saint Gallen-Altenrhein Ansbach / Katterbach Resia Pass

Om een weerknop op uw website of weblog te plaatsen, copieer onderstaande code en plak die in uw pagina. In het eerste vakje staat HTML-code, in het tweede vakje UBB-code.


Add to Google

Details

Wind speed:3 bf, 7 kn, 3.6 m/s, 8.1 miles/h, 13.0 km/h
Wind direction:W, 280°
Visibility:Greater than 10000 m, 10 km, 32800 ft, 6.2 miles
Clouds:CAVOC
Temperature:18°C, 64°F
Dew-point:12°C, 54°F
Atmospheric pressure:1022 hPa, 766.6 mmHg, 30.18 inHg, 1.009 atm
Relative humidity:68.0 %
METAR:EDMO 211650Z 28007KT CAVOK 18/12 Q1022

Snelkoppelingen

Actuele weersinformatie van de hele wereld. Voeg locaties toe met het plus (+) symbool. Deze snelkoppelingen kunnen worden toegevoegd aan Google.

Lid van de Technetium groep

website free tracking
StatCounter NetStat W3C Validator

22-05-2022 12:46:55
astro.technetium.be money.technetium.be phote.technetium.be tafeltennistafel.technetium.be www.ligfiets.net